Time;durP1;ratioP1;P1;durP2;ratioP2;P2;SDS_P1;SDS_P2;PMS_P1;PMS_P2;Temp;Humidity;BMP_temperature;BMP_pressure;BME280_temperature;BME280_humidity;BME280_pressure;Samples;Min_cycle;Max_cycle;Signal;HPM_P1;HPM_P2
2021/10/17 00:01:29;;;;;;;8.98;2.55;;;24.90;99.90;;;;;;1953825;71;21159;-79
2021/10/17 00:04:00;;;;;;;2.98;1.92;;;24.90;99.90;;;;;;1953473;71;21475;-78
2021/10/17 00:06:31;;;;;;;4.05;2.12;;;24.90;99.90;;;;;;1986224;71;21535;-77
2021/10/17 00:09:02;;;;;;;4.28;2.37;;;24.90;99.80;;;;;;1970201;71;22081;-78
2021/10/17 00:11:34;;;;;;;7.62;3.60;;;25.00;99.90;;;;;;1962136;71;21147;-79
2021/10/17 00:14:09;;;;;;;4.10;2.50;;;24.90;99.90;;;;;;1953116;72;21465;-78
2021/10/17 00:16:40;;;;;;;5.62;3.08;;;25.00;99.80;;;;;;1982311;71;21666;-80
2021/10/17 00:19:11;;;;;;;7.47;3.72;;;25.00;99.80;;;;;;1951998;71;21231;-80
2021/10/17 00:21:41;;;;;;;7.62;4.58;;;24.90;99.50;;;;;;1935402;71;21179;-79
2021/10/17 00:24:12;;;;;;;13.32;6.83;;;25.00;99.60;;;;;;1955833;72;21106;-81
2021/10/17 00:26:43;;;;;;;7.65;3.55;;;25.00;99.50;;;;;;1975032;71;21235;-83
2021/10/17 00:29:14;;;;;;;11.90;7.40;;;24.90;99.50;;;;;;1960565;71;21252;-81
2021/10/17 00:31:45;;;;;;;10.15;5.65;;;25.00;99.40;;;;;;1975517;71;21168;-81
2021/10/17 00:34:16;;;;;;;6.55;3.98;;;24.90;98.80;;;;;;1959466;72;21276;-81
2021/10/17 00:36:48;;;;;;;6.25;3.27;;;24.90;98.50;;;;;;1944414;72;21239;-80
2021/10/17 00:39:19;;;;;;;5.80;3.15;;;24.90;99.00;;;;;;1956817;72;21232;-81
2021/10/17 00:41:51;;;;;;;8.55;5.30;;;24.90;99.40;;;;;;1971654;71;21657;-81
2021/10/17 00:44:24;;;;;;;12.88;8.70;;;24.80;99.50;;;;;;1952789;71;21076;-82
2021/10/17 00:46:54;;;;;;;8.98;3.70;;;24.80;99.20;;;;;;1943450;72;21068;-81
2021/10/17 00:49:28;;;;;;;10.58;6.22;;;24.80;99.30;;;;;;1956667;71;21070;-82
2021/10/17 00:51:59;;;;;;;6.28;2.95;;;24.80;99.70;;;;;;1954822;72;21185;-82
2021/10/17 00:54:29;;;;;;;5.47;3.65;;;24.80;99.80;;;;;;1982496;71;21193;-82
2021/10/17 00:57:00;;;;;;;6.00;3.50;;;24.80;99.90;;;;;;1920573;74;21137;-81
2021/10/17 00:59:31;;;;;;;7.15;3.10;;;24.80;99.90;;;;;;1924124;73;21148;-84
2021/10/17 01:02:01;;;;;;;4.40;2.80;;;24.90;99.80;;;;;;1926822;73;21840;-83
2021/10/17 01:04:36;;;;;;;10.48;4.67;;;24.90;99.60;;;;;;1888165;74;21054;-82
2021/10/17 01:07:07;;;;;;;7.83;3.27;;;25.00;99.60;;;;;;1907384;73;21592;-82
2021/10/17 01:09:40;;;;;;;6.67;2.37;;;25.00;99.50;;;;;;1975977;71;21114;-81
2021/10/17 01:12:11;;;;;;;5.12;1.95;;;25.00;99.40;;;;;;1945684;71;21510;-81
2021/10/17 01:14:41;;;;;;;7.28;2.52;;;25.00;99.30;;;;;;1969188;70;21145;-81
2021/10/17 01:17:12;;;;;;;6.28;2.10;;;25.10;99.20;;;;;;1960600;71;21570;-80
2021/10/17 01:19:45;;;;;;;4.83;1.92;;;25.10;98.90;;;;;;1956755;72;21233;-81
2021/10/17 01:22:17;;;;;;;4.80;2.35;;;25.20;98.70;;;;;;1952334;72;21163;-81
2021/10/17 01:24:48;;;;;;;4.87;2.22;;;25.10;98.60;;;;;;1949612;72;21095;-81
2021/10/17 01:27:20;;;;;;;2.25;1.10;;;25.10;98.00;;;;;;1974571;70;21194;-81
2021/10/17 01:29:51;;;;;;;6.65;1.75;;;25.10;97.60;;;;;;1963320;72;21636;-81
2021/10/17 01:32:22;;;;;;;2.42;1.20;;;25.10;97.80;;;;;;1972561;71;21297;-80
2021/10/17 01:34:53;;;;;;;2.65;1.30;;;25.10;97.50;;;;;;1965128;72;21157;-81
2021/10/17 01:37:24;;;;;;;2.85;1.45;;;25.10;97.60;;;;;;1961402;72;21228;-81
2021/10/17 01:39:56;;;;;;;2.95;1.50;;;25.10;97.70;;;;;;1964090;71;21172;-81
2021/10/17 01:42:27;;;;;;;6.85;3.77;;;25.10;97.70;;;;;;1976917;71;21080;-82
2021/10/17 01:44:58;;;;;;;6.78;3.00;;;25.10;97.60;;;;;;1954859;71;21226;-81
2021/10/17 01:47:30;;;;;;;7.50;3.98;;;25.10;97.50;;;;;;1968149;71;21612;-82
2021/10/17 01:50:01;;;;;;;4.50;2.52;;;25.10;97.60;;;;;;1948170;71;21476;-83
2021/10/17 01:52:31;;;;;;;2.87;1.57;;;25.10;97.70;;;;;;1966873;71;21101;-82
2021/10/17 01:55:06;;;;;;;4.55;1.65;;;25.00;97.30;;;;;;1957744;71;21117;-82
2021/10/17 01:57:37;;;;;;;2.80;1.50;;;25.10;97.40;;;;;;1961864;72;21147;-82
2021/10/17 02:00:08;;;;;;;2.45;1.47;;;25.10;97.60;;;;;;1972950;71;21455;-82
2021/10/17 02:02:39;;;;;;;3.25;1.37;;;25.10;97.80;;;;;;1956411;72;21135;-82
2021/10/17 02:05:10;;;;;;;4.70;1.70;;;25.10;97.90;;;;;;1947543;72;21575;-85
2021/10/17 02:07:41;;;;;;;3.98;1.72;;;25.20;98.10;;;;;;1946059;72;21096;-81
2021/10/17 02:10:12;;;;;;;6.55;2.75;;;25.30;98.10;;;;;;1959226;71;21218;-82
2021/10/17 02:12:43;;;;;;;4.95;1.50;;;25.30;98.00;;;;;;1961266;71;21173;-81
2021/10/17 02:15:13;;;;;;;3.65;1.17;;;25.40;98.00;;;;;;1967738;71;21620;-81
2021/10/17 02:17:46;;;;;;;3.42;0.98;;;25.40;97.40;;;;;;1948987;72;21593;-81
2021/10/17 02:20:16;;;;;;;2.98;1.20;;;25.50;97.30;;;;;;1964248;71;21675;-80
2021/10/17 02:22:47;;;;;;;2.95;1.47;;;25.60;97.50;;;;;;1926436;73;21158;-82
2021/10/17 02:25:18;;;;;;;6.30;1.75;;;25.60;97.80;;;;;;1875327;75;21662;-80
2021/10/17 02:27:48;;;;;;;4.78;1.60;;;25.60;97.00;;;;;;1928179;73;21157;-80
2021/10/17 02:30:19;;;;;;;4.22;1.90;;;25.70;96.60;;;;;;1951148;71;21113;-81
2021/10/17 02:32:50;;;;;;;5.10;1.60;;;25.80;96.90;;;;;;1931213;72;21169;-82
2021/10/17 02:35:21;;;;;;;2.22;1.05;;;25.90;96.30;;;;;;1960390;71;21538;-84
2021/10/17 02:37:54;;;;;;;3.37;1.37;;;26.00;95.50;;;;;;1950673;72;21189;-82
2021/10/17 02:40:25;;;;;;;2.92;1.70;;;26.10;95.60;;;;;;1958601;72;21113;-82
2021/10/17 02:42:56;;;;;;;4.65;1.45;;;26.20;95.90;;;;;;1962390;72;21750;-81
2021/10/17 02:45:27;;;;;;;2.85;1.10;;;26.30;95.50;;;;;;1970842;72;21738;-81
2021/10/17 02:47:58;;;;;;;4.17;1.00;;;26.40;94.90;;;;;;1969630;71;21779;-81
2021/10/17 02:50:29;;;;;;;4.33;1.67;;;26.40;94.50;;;;;;1952640;71;21166;-81
2021/10/17 02:53:00;;;;;;;3.80;0.80;;;26.40;94.00;;;;;;1909922;72;21728;-81
2021/10/17 02:55:31;;;;;;;1.55;0.95;;;26.40;94.40;;;;;;1948477;71;21205;-82
2021/10/17 02:58:02;;;;;;;3.77;0.90;;;26.40;93.90;;;;;;1947496;72;21127;-82
2021/10/17 03:00:33;;;;;;;1.85;0.88;;;26.40;94.10;;;;;;1943039;72;21154;-82
2021/10/17 03:03:04;;;;;;;2.67;1.40;;;26.40;94.90;;;;;;1945076;71;21115;-81
2021/10/17 03:05:43;;;;;;;1.57;1.10;;;26.30;94.20;;;;;;1945126;72;21247;-81
2021/10/17 03:08:11;;;;;;;;;;;26.20;94.00;;;;;;1959484;71;21705;-81
2021/10/17 03:10:42;;;;;;;2.17;1.30;;;26.30;95.10;;;;;;1960827;72;20254;-82
2021/10/17 03:13:13;;;;;;;2.50;1.20;;;26.30;94.90;;;;;;1954495;72;21111;-83
2021/10/17 03:15:43;;;;;;;2.27;1.12;;;26.30;94.50;;;;;;1963560;72;21147;-82
2021/10/17 03:18:14;;;;;;;3.10;1.30;;;26.20;94.50;;;;;;1952415;72;21224;-83
2021/10/17 03:20:45;;;;;;;3.65;1.07;;;26.30;94.70;;;;;;1949159;72;21636;-73
2021/10/17 03:23:16;;;;;;;6.37;2.55;;;26.30;94.70;;;;;;1973026;71;21108;-72
2021/10/17 03:25:47;;;;;;;4.65;1.40;;;26.20;94.90;;;;;;1978900;71;21141;-72
2021/10/17 03:28:18;;;;;;;4.80;2.05;;;26.30;95.00;;;;;;1951750;72;21711;-72
2021/10/17 03:30:54;;;;;;;3.02;1.87;;;26.30;93.90;;;;;;1936834;72;21532;-74
2021/10/17 03:33:25;;;;;;;4.15;2.00;;;26.30;94.40;;;;;;1942463;72;21217;-73
2021/10/17 03:35:54;;;;;;;4.80;2.40;;;26.20;94.80;;;;;;1951708;72;21806;-75
2021/10/17 03:38:25;;;;;;;3.30;1.70;;;26.20;94.70;;;;;;1967757;71;21130;-73
2021/10/17 03:40:57;;;;;;;4.83;1.85;;;26.30;95.00;;;;;;1958115;71;21235;-74
2021/10/17 03:43:27;;;;;;;3.25;1.67;;;26.30;94.80;;;;;;1947752;70;21143;-73
2021/10/17 03:45:58;;;;;;;3.50;1.20;;;26.40;94.50;;;;;;1953063;71;21079;-72
2021/10/17 03:48:29;;;;;;;3.20;1.60;;;26.40;94.20;;;;;;1951104;71;21456;-73
2021/10/17 03:51:00;;;;;;;2.65;1.10;;;26.50;94.50;;;;;;1976843;71;21187;-73
2021/10/17 03:53:30;;;;;;;6.40;1.50;;;26.50;94.50;;;;;;1966316;71;21180;-74
2021/10/17 03:56:01;;;;;;;2.30;1.20;;;26.50;94.30;;;;;;1947333;72;21166;-75
2021/10/17 03:58:32;;;;;;;2.67;1.27;;;26.60;93.90;;;;;;1943916;71;21530;-74
2021/10/17 04:01:02;;;;;;;3.87;1.62;;;26.60;92.80;;;;;;1962328;71;21607;-73
2021/10/17 04:03:33;;;;;;;5.80;2.33;;;26.70;93.40;;;;;;1973898;71;21205;-74
2021/10/17 04:06:06;;;;;;;2.87;1.32;;;26.70;93.70;;;;;;1984037;71;21740;-73
2021/10/17 04:08:39;;;;;;;3.20;1.55;;;26.80;93.40;;;;;;1970714;71;21220;-72
2021/10/17 04:11:10;;;;;;;2.27;1.20;;;26.90;93.50;;;;;;1949315;72;21213;-74
2021/10/17 04:13:41;;;;;;;4.80;2.02;;;27.00;93.40;;;;;;1925397;72;21926;-74
2021/10/17 04:16:12;;;;;;;2.77;1.60;;;27.00;93.30;;;;;;1922430;73;21166;-74
2021/10/17 04:18:42;;;;;;;2.92;1.02;;;27.10;93.40;;;;;;1904061;73;21151;-74
2021/10/17 04:21:13;;;;;;;2.98;1.62;;;27.10;93.00;;;;;;1916464;73;21120;-74
2021/10/17 04:23:44;;;;;;;3.20;1.27;;;27.10;92.70;;;;;;1984007;71;21035;-74
2021/10/17 04:26:15;;;;;;;2.95;1.32;;;27.10;92.80;;;;;;1985057;72;21107;-73
2021/10/17 04:28:45;;;;;;;2.22;1.30;;;27.20;92.90;;;;;;1975152;71;21240;-74
2021/10/17 04:31:16;;;;;;;3.02;1.30;;;27.20;92.20;;;;;;1958667;71;21149;-74
2021/10/17 04:33:47;;;;;;;2.25;1.20;;;27.20;92.30;;;;;;1973707;71;21602;-74
2021/10/17 04:36:18;;;;;;;2.30;1.10;;;27.20;91.70;;;;;;1958432;71;21799;-74
2021/10/17 04:38:51;;;;;;;3.08;1.40;;;27.20;91.60;;;;;;1980366;71;21165;-74
2021/10/17 04:41:21;;;;;;;7.85;4.08;;;27.20;91.80;;;;;;1985295;71;21247;-74
2021/10/17 04:43:52;;;;;;;5.37;2.33;;;27.10;91.70;;;;;;1974038;71;21158;-73
2021/10/17 04:46:22;;;;;;;3.25;1.60;;;27.10;91.80;;;;;;1961896;72;21144;-72
2021/10/17 04:48:53;;;;;;;6.87;1.80;;;27.10;91.90;;;;;;1937288;71;21173;-73
2021/10/17 04:51:23;;;;;;;2.80;1.50;;;27.10;92.20;;;;;;1967316;71;21067;-74
2021/10/17 04:53:54;;;;;;;3.58;1.45;;;27.10;91.90;;;;;;1915553;72;21197;-73
2021/10/17 04:56:25;;;;;;;4.62;1.50;;;27.20;92.30;;;;;;1920066;73;21088;-73
2021/10/17 04:58:56;;;;;;;3.27;1.57;;;27.30;92.00;;;;;;1944268;71;21535;-73
2021/10/17 05:01:27;;;;;;;5.08;1.72;;;27.40;91.80;;;;;;1962965;71;21168;-73
2021/10/17 05:03:58;;;;;;;2.77;1.47;;;27.40;91.70;;;;;;1967424;71;21243;-73
2021/10/17 05:06:29;;;;;;;4.60;1.60;;;27.40;91.80;;;;;;1953639;72;21166;-72
2021/10/17 05:09:00;;;;;;;3.90;1.95;;;27.40;92.00;;;;;;1969955;71;21624;-72
2021/10/17 05:11:31;;;;;;;5.55;1.77;;;27.40;92.20;;;;;;1915161;72;21645;-72
2021/10/17 05:14:01;;;;;;;4.47;1.75;;;27.40;92.10;;;;;;1933354;73;21147;-72
2021/10/17 05:16:32;;;;;;;5.40;2.85;;;27.50;92.20;;;;;;1960872;72;21166;-72
2021/10/17 05:19:03;;;;;;;3.75;1.85;;;27.50;92.40;;;;;;1955827;71;21095;-71
2021/10/17 05:21:34;;;;;;;3.45;1.40;;;27.50;91.80;;;;;;1964427;71;21459;-72
2021/10/17 05:24:05;;;;;;;3.77;1.70;;;27.50;91.80;;;;;;1964118;71;21127;-72
2021/10/17 05:26:36;;;;;;;4.45;1.67;;;27.50;91.90;;;;;;1893872;73;21688;-72
2021/10/17 05:29:08;;;;;;;2.62;1.50;;;27.50;91.90;;;;;;1974432;71;21615;-73
2021/10/17 05:31:39;;;;;;;5.92;2.40;;;27.40;91.30;;;;;;1952558;71;21555;-72
2021/10/17 05:34:10;;;;;;;3.55;1.85;;;27.30;91.70;;;;;;1979625;71;21902;-72
2021/10/17 05:36:40;;;;;;;4.50;1.57;;;27.30;91.90;;;;;;1936906;72;21120;-72
2021/10/17 05:39:12;;;;;;;3.50;1.52;;;27.30;91.70;;;;;;1939699;72;21167;-72
2021/10/17 05:41:42;;;;;;;4.35;1.70;;;27.30;91.50;;;;;;1949151;72;21675;-72
2021/10/17 05:44:13;;;;;;;2.50;1.60;;;27.20;91.80;;;;;;1954155;71;21140;-72
2021/10/17 05:46:44;;;;;;;2.60;1.40;;;27.20;91.60;;;;;;1969705;71;21211;-72
2021/10/17 05:49:14;;;;;;;2.65;1.37;;;27.20;91.30;;;;;;1948331;71;21069;-72
2021/10/17 05:51:45;;;;;;;5.45;1.65;;;27.20;91.50;;;;;;1976754;71;21073;-72
2021/10/17 05:54:16;;;;;;;2.90;1.57;;;27.20;91.20;;;;;;1936004;73;21169;-72
2021/10/17 05:56:47;;;;;;;2.35;1.50;;;27.20;91.30;;;;;;1948084;71;21567;-72
2021/10/17 05:59:18;;;;;;;5.47;1.45;;;27.20;91.30;;;;;;1955741;72;21647;-72
2021/10/17 06:01:49;;;;;;;3.17;1.75;;;27.20;91.40;;;;;;1879403;73;21206;-72
2021/10/17 06:04:20;;;;;;;4.55;2.25;;;27.10;91.50;;;;;;1897930;73;21211;-72
2021/10/17 06:06:51;;;;;;;4.62;1.92;;;27.10;91.20;;;;;;1970826;71;21148;-72
2021/10/17 06:09:22;;;;;;;4.37;1.77;;;27.10;91.40;;;;;;1966337;71;21714;-72
2021/10/17 06:11:54;;;;;;;3.15;1.65;;;27.10;91.40;;;;;;1971783;71;21595;-72
2021/10/17 06:14:25;;;;;;;3.80;1.70;;;27.00;91.50;;;;;;1958475;71;21220;-72
2021/10/17 06:16:56;;;;;;;4.87;2.22;;;27.00;92.30;;;;;;1969626;71;21116;-73
2021/10/17 06:19:27;;;;;;;3.60;2.00;;;27.00;92.00;;;;;;1960626;72;21635;-73
2021/10/17 06:22:03;;;;;;;2.33;1.60;;;27.00;91.90;;;;;;1974224;71;21128;-72
2021/10/17 06:24:32;;;;;;;4.90;1.77;;;27.00;91.80;;;;;;1964274;71;21152;-73
2021/10/17 06:27:03;;;;;;;2.33;1.42;;;27.00;91.60;;;;;;1959411;72;21125;-73
2021/10/17 06:29:34;;;;;;;3.15;1.80;;;27.00;91.70;;;;;;1954146;72;21258;-73
2021/10/17 06:32:05;;;;;;;3.42;1.70;;;27.00;92.00;;;;;;1962840;71;21082;-72
2021/10/17 06:34:36;;;;;;;4.72;1.80;;;27.00;92.40;;;;;;1976948;71;21575;-72
2021/10/17 06:37:07;;;;;;;4.22;1.87;;;27.00;92.20;;;;;;1913495;73;21661;-73
2021/10/17 06:39:38;;;;;;;4.10;1.77;;;27.00;91.70;;;;;;1969594;71;21663;-74
2021/10/17 06:42:09;;;;;;;4.97;2.37;;;27.00;91.50;;;;;;1990557;71;21145;-72
2021/10/17 06:44:39;;;;;;;4.25;2.00;;;27.00;91.50;;;;;;1978630;71;21146;-73
2021/10/17 06:47:10;;;;;;;4.08;2.15;;;27.00;90.90;;;;;;1961921;71;21116;-72
2021/10/17 06:49:41;;;;;;;5.20;2.15;;;27.00;91.50;;;;;;1951609;71;21202;-72
2021/10/17 06:52:12;;;;;;;4.17;2.30;;;27.10;91.60;;;;;;1969996;71;21104;-73
2021/10/17 06:54:42;;;;;;;4.50;2.20;;;27.10;91.80;;;;;;1962339;71;21179;-73
2021/10/17 06:57:13;;;;;;;4.95;1.92;;;27.10;91.80;;;;;;1908507;73;21171;-73
2021/10/17 06:59:44;;;;;;;4.08;1.90;;;27.20;91.00;;;;;;1932410;73;21116;-73
2021/10/17 07:02:15;;;;;;;3.98;2.00;;;27.20;91.20;;;;;;1906331;73;21172;-74
2021/10/17 07:04:47;;;;;;;5.60;2.40;;;27.20;91.30;;;;;;1894069;75;21221;-73
2021/10/17 07:07:18;;;;;;;4.08;1.95;;;27.20;91.50;;;;;;1949890;71;21128;-73
2021/10/17 07:09:48;;;;;;;2.85;1.98;;;27.30;91.80;;;;;;1955682;72;21539;-73
2021/10/17 07:12:19;;;;;;;5.90;2.30;;;27.30;92.00;;;;;;1973959;71;21205;-73
2021/10/17 07:14:52;;;;;;;4.53;2.10;;;27.30;91.80;;;;;;1966659;71;21085;-72
2021/10/17 07:17:23;;;;;;;4.37;2.55;;;27.30;91.90;;;;;;1972226;71;21151;-73
2021/10/17 07:19:53;;;;;;;3.33;1.82;;;27.30;91.60;;;;;;1972748;72;21471;-73
2021/10/17 07:22:24;;;;;;;4.12;2.35;;;27.30;91.50;;;;;;1966859;72;21175;-73
2021/10/17 07:24:55;;;;;;;5.92;2.35;;;27.30;92.00;;;;;;1959298;72;21117;-73
2021/10/17 07:27:26;;;;;;;3.55;2.17;;;27.30;91.70;;;;;;1967283;71;21696;-73
2021/10/17 07:29:56;;;;;;;4.10;2.20;;;27.30;91.60;;;;;;1964803;71;21629;-73
2021/10/17 07:32:27;;;;;;;3.80;2.22;;;27.30;91.60;;;;;;1963747;71;21146;-73
2021/10/17 07:34:58;;;;;;;4.47;2.55;;;27.30;91.50;;;;;;1912135;72;21205;-72
2021/10/17 07:37:29;;;;;;;3.72;2.10;;;27.30;91.50;;;;;;1928365;73;21645;-72
2021/10/17 07:39:59;;;;;;;3.85;2.25;;;27.20;91.10;;;;;;1923031;72;21609;-72
2021/10/17 07:42:30;;;;;;;5.17;2.40;;;27.20;91.00;;;;;;1919724;74;21099;-73
2021/10/17 07:45:01;;;;;;;4.22;2.20;;;27.10;91.00;;;;;;1973004;71;21522;-73
2021/10/17 07:47:34;;;;;;;4.87;2.47;;;27.10;91.00;;;;;;1991728;71;21664;-72
2021/10/17 07:50:07;;;;;;;6.53;2.10;;;27.00;91.10;;;;;;1966671;71;21178;-72
2021/10/17 07:52:38;;;;;;;5.62;2.08;;;26.90;91.30;;;;;;1963396;71;21607;-72
2021/10/17 07:55:09;;;;;;;4.85;2.20;;;26.90;91.50;;;;;;1961542;72;21136;-71
2021/10/17 07:57:42;;;;;;;6.97;2.80;;;26.90;91.70;;;;;;1942052;73;21224;-72
2021/10/17 08:00:15;;;;;;;3.20;2.02;;;26.90;91.80;;;;;;1961953;72;21690;-73
2021/10/17 08:02:45;;;;;;;7.25;2.27;;;26.90;91.90;;;;;;1959504;71;21179;-73
2021/10/17 08:05:17;;;;;;;3.87;2.33;;;26.90;92.20;;;;;;1968181;71;21225;-72
2021/10/17 08:07:49;;;;;;;3.85;2.37;;;26.90;92.20;;;;;;1923323;74;21174;-72
2021/10/17 08:10:20;;;;;;;5.42;2.52;;;26.90;92.30;;;;;;1947064;72;21073;-73
2021/10/17 08:12:50;;;;;;;5.30;2.20;;;26.90;92.50;;;;;;1962417;72;21113;-73
2021/10/17 08:15:21;;;;;;;4.92;2.60;;;26.90;92.90;;;;;;1922517;73;21140;-73
2021/10/17 08:17:52;;;;;;;4.90;2.33;;;26.90;93.00;;;;;;1915062;73;21232;-73
2021/10/17 08:20:23;;;;;;;7.95;3.12;;;26.90;93.00;;;;;;1901356;73;21731;-73
2021/10/17 08:22:54;;;;;;;7.28;2.80;;;26.90;92.80;;;;;;1916470;73;21107;-73
2021/10/17 08:25:25;;;;;;;4.05;2.60;;;26.90;93.00;;;;;;1932717;73;21182;-73
2021/10/17 08:27:56;;;;;;;6.12;2.62;;;26.90;93.10;;;;;;1903990;74;21590;-73
2021/10/17 08:30:27;;;;;;;4.67;2.10;;;26.90;93.10;;;;;;1942253;72;21190;-73
2021/10/17 08:32:57;;;;;;;6.33;2.60;;;26.90;93.10;;;;;;1956420;71;21199;-71
2021/10/17 08:35:28;;;;;;;6.25;2.52;;;26.90;93.20;;;;;;1954659;72;21177;-72
2021/10/17 08:37:59;;;;;;;5.55;2.50;;;26.90;93.30;;;;;;1969622;72;21576;-72
2021/10/17 08:40:30;;;;;;;4.28;2.52;;;26.90;93.40;;;;;;1966528;72;21621;-72
2021/10/17 08:43:01;;;;;;;6.12;2.98;;;26.80;93.20;;;;;;1956780;72;21198;-73
2021/10/17 08:45:31;;;;;;;5.87;2.72;;;26.80;93.60;;;;;;1961996;72;21287;-72
2021/10/17 08:48:04;;;;;;;4.83;2.60;;;26.90;93.90;;;;;;1961427;71;21142;-72
2021/10/17 08:50:35;;;;;;;5.90;2.80;;;26.80;94.00;;;;;;1962321;71;21081;-72
2021/10/17 08:53:06;;;;;;;3.50;2.60;;;26.80;94.20;;;;;;1924670;72;21653;-72
2021/10/17 08:55:37;;;;;;;10.72;2.92;;;26.70;94.20;;;;;;1958440;71;21662;-71
2021/10/17 08:58:09;;;;;;;7.25;2.77;;;26.70;94.20;;;;;;1994777;71;21169;-72
2021/10/17 09:00:40;;;;;;;6.53;2.80;;;26.70;94.30;;;;;;1963270;71;21198;-73
2021/10/17 09:03:11;;;;;;;7.47;3.42;;;26.60;94.10;;;;;;1936794;73;21173;-72
2021/10/17 09:05:44;;;;;;;6.10;3.05;;;26.60;94.30;;;;;;1966465;71;21184;-72
2021/10/17 09:08:17;;;;;;;6.40;2.62;;;26.60;94.30;;;;;;1991290;71;21674;-73
2021/10/17 09:11:08;;;;;;;5.25;2.95;;;26.60;94.60;;;;;;1959125;71;21533;-72
2021/10/17 09:13:41;;;;;;;11.60;3.20;;;26.60;94.30;;;;;;1840635;76;21610;-73
2021/10/17 09:16:15;;;;;;;4.70;3.12;;;26.60;94.50;;;;;;1850530;75;22396;-72
2021/10/17 09:18:46;;;;;;;4.30;2.80;;;26.60;94.70;;;;;;1841851;76;21732;-73
2021/10/17 09:21:17;;;;;;;7.22;3.12;;;26.60;94.60;;;;;;1891552;74;21233;-75
2021/10/17 09:23:49;;;;;;;5.50;3.27;;;26.60;94.60;;;;;;1875904;74;21087;-73
2021/10/17 09:26:19;;;;;;;5.78;3.00;;;26.60;94.70;;;;;;1879877;73;21139;-73
2021/10/17 09:28:52;;;;;;;6.70;3.00;;;26.60;94.60;;;;;;1834663;75;21299;-72
2021/10/17 09:31:23;;;;;;;6.03;2.83;;;26.60;94.40;;;;;;1900404;74;21776;-71
2021/10/17 09:33:57;;;;;;;3.95;3.10;;;26.60;94.20;;;;;;1910152;74;21111;-71
2021/10/17 09:36:30;;;;;;;6.08;2.87;;;26.70;94.20;;;;;;1883425;74;21147;-71
2021/10/17 09:39:15;;;;;;;4.00;2.83;;;26.70;94.20;;;;;;1889587;74;21620;-72
2021/10/17 09:41:37;;;;;;;5.92;2.55;;;26.70;94.10;;;;;;1883600;73;21638;-72
2021/10/17 09:44:08;;;;;;;5.33;2.55;;;26.70;94.10;;;;;;1891337;74;21585;-71
2021/10/17 09:46:38;;;;;;;5.65;2.98;;;26.70;93.90;;;;;;1899898;73;21132;-73
2021/10/17 09:49:12;;;;;;;7.03;3.10;;;26.70;93.90;;;;;;1891188;74;21190;-72
2021/10/17 09:51:43;;;;;;;7.05;2.80;;;26.60;94.90;;;;;;1891123;73;21147;-72
2021/10/17 09:54:14;;;;;;;6.00;2.75;;;26.60;94.90;;;;;;1883721;73;21295;-71
2021/10/17 09:56:44;;;;;;;7.03;3.02;;;26.60;95.10;;;;;;1889417;74;21072;-72
2021/10/17 09:59:16;;;;;;;7.17;2.87;;;26.50;95.00;;;;;;1883292;74;21232;-72
2021/10/17 10:01:47;;;;;;;5.85;2.52;;;26.50;95.20;;;;;;1897742;74;21200;-72
2021/10/17 10:04:18;;;;;;;5.25;2.65;;;26.40;95.40;;;;;;1865091;74;21071;-72
2021/10/17 10:06:49;;;;;;;5.78;2.65;;;26.40;95.30;;;;;;1886747;74;21197;-72
2021/10/17 10:09:22;;;;;;;5.70;2.60;;;26.40;95.40;;;;;;1827355;77;21148;-72
2021/10/17 10:11:54;;;;;;;6.45;2.80;;;26.40;95.80;;;;;;1839731;75;21705;-72
2021/10/17 10:14:26;;;;;;;5.22;2.47;;;26.30;95.90;;;;;;1913414;73;21535;-73
2021/10/17 10:17:00;;;;;;;5.75;2.50;;;26.30;95.60;;;;;;1898107;74;21155;-73
2021/10/17 10:19:32;;;;;;;3.47;2.47;;;26.30;95.80;;;;;;1861508;74;21151;-73
2021/10/17 10:22:03;;;;;;;4.62;2.55;;;26.20;95.90;;;;;;1846987;76;21508;-72
2021/10/17 10:24:34;;;;;;;4.67;3.00;;;26.20;96.00;;;;;;1841097;76;21201;-73
2021/10/17 10:27:05;;;;;;;4.75;2.60;;;26.20;96.40;;;;;;1848472;76;21595;-73
2021/10/17 10:29:37;;;;;;;5.15;2.58;;;26.10;96.50;;;;;;1901256;73;21171;-72
2021/10/17 10:32:08;;;;;;;6.25;3.45;;;26.10;96.50;;;;;;1896736;74;21176;-72
2021/10/17 10:34:42;;;;;;;6.40;3.00;;;26.10;96.90;;;;;;1835893;76;21737;-75
2021/10/17 10:37:16;;;;;;;6.80;3.25;;;26.00;96.80;;;;;;1840436;76;21164;-73
2021/10/17 10:39:49;;;;;;;6.58;3.50;;;26.10;97.00;;;;;;1852296;75;21236;-71
2021/10/17 10:42:22;;;;;;;6.17;3.30;;;26.10;97.10;;;;;;1905062;73;21691;-71
2021/10/17 10:44:53;;;;;;;4.85;3.12;;;26.00;97.10;;;;;;1882877;74;21424;-71
2021/10/17 10:47:26;;;;;;;6.37;3.65;;;26.00;97.60;;;;;;1874222;74;21162;-72
2021/10/17 10:49:59;;;;;;;7.70;3.27;;;26.00;97.30;;;;;;1887357;74;21223;-72
2021/10/17 10:52:32;;;;;;;7.03;2.92;;;25.90;97.40;;;;;;1871449;75;21201;-73
2021/10/17 10:55:04;;;;;;;7.45;3.12;;;25.90;97.40;;;;;;1899538;73;21639;-73
2021/10/17 10:57:37;;;;;;;6.17;3.10;;;25.80;97.50;;;;;;1906067;74;21731;-72
2021/10/17 11:00:11;;;;;;;6.30;3.08;;;25.90;97.40;;;;;;1900745;74;21172;-72
2021/10/17 11:02:44;;;;;;;7.92;3.90;;;25.80;97.30;;;;;;1897014;73;21159;-73
2021/10/17 11:05:17;;;;;;;5.87;2.85;;;25.80;97.50;;;;;;1929572;73;21155;-73
2021/10/17 11:07:49;;;;;;;5.58;3.02;;;25.80;97.60;;;;;;1891338;73;21194;-72
2021/10/17 11:10:22;;;;;;;6.22;2.90;;;25.80;97.60;;;;;;1875366;74;21158;-72
2021/10/17 11:12:55;;;;;;;5.00;2.95;;;25.70;97.40;;;;;;1890297;73;21169;-71
2021/10/17 11:15:28;;;;;;;5.15;2.52;;;25.70;97.50;;;;;;1856993;74;21139;-72
2021/10/17 11:18:03;;;;;;;4.70;2.75;;;25.60;97.30;;;;;;1827879;76;21179;-72
2021/10/17 11:20:37;;;;;;;8.18;3.37;;;25.70;97.40;;;;;;1889336;74;21166;-72
2021/10/17 11:23:09;;;;;;;4.83;2.52;;;25.70;97.50;;;;;;1880237;74;21141;-72
2021/10/17 11:25:40;;;;;;;5.70;2.58;;;25.70;97.50;;;;;;1883424;73;21670;-72
2021/10/17 11:28:11;;;;;;;5.28;3.15;;;25.70;97.50;;;;;;1852893;75;21583;-72
2021/10/17 11:30:43;;;;;;;5.85;2.52;;;25.70;97.50;;;;;;1817297;77;21860;-72
2021/10/17 11:33:16;;;;;;;4.42;2.72;;;25.60;97.30;;;;;;1851068;76;21218;-71
2021/10/17 11:35:48;;;;;;;5.40;3.15;;;25.60;97.20;;;;;;1813289;77;21159;-72
2021/10/17 11:38:19;;;;;;;5.65;3.15;;;25.60;97.50;;;;;;1828693;76;21734;-72
2021/10/17 11:40:50;;;;;;;6.47;3.10;;;25.60;97.50;;;;;;1828562;76;21183;-72
2021/10/17 11:43:21;;;;;;;5.78;3.22;;;25.60;97.60;;;;;;1836519;76;21221;-72
2021/10/17 11:45:55;;;;;;;8.08;3.42;;;25.50;97.50;;;;;;1807616;76;21129;-72
2021/10/17 11:48:26;;;;;;;4.87;3.35;;;25.50;97.70;;;;;;1831749;76;21233;-73
2021/10/17 11:50:57;;;;;;;5.97;3.12;;;25.50;97.80;;;;;;1890300;73;21655;-72
2021/10/17 11:53:28;;;;;;;4.35;2.65;;;25.50;97.80;;;;;;1877026;74;21088;-73
2021/10/17 11:55:59;;;;;;;5.15;3.02;;;25.50;97.80;;;;;;1827837;76;21184;-73
2021/10/17 11:58:32;;;;;;;5.83;2.70;;;25.50;97.70;;;;;;1828445;76;21158;-72
2021/10/17 12:01:05;;;;;;;5.87;2.47;;;25.50;97.40;;;;;;1837285;76;22102;-72
2021/10/17 12:03:37;;;;;;;9.58;3.20;;;25.50;97.40;;;;;;1840653;76;21665;-72
2021/10/17 12:06:10;;;;;;;5.22;2.15;;;25.50;97.50;;;;;;1896518;74;21097;-72
2021/10/17 12:08:44;;;;;;;5.05;2.22;;;25.50;97.10;;;;;;1879173;74;21090;-73
2021/10/17 12:11:17;;;;;;;7.33;2.30;;;25.50;97.20;;;;;;1902129;73;21126;-73
2021/10/17 12:13:50;;;;;;;4.55;2.47;;;25.50;97.20;;;;;;1891885;73;21163;-72
2021/10/17 12:16:23;;;;;;;3.00;2.10;;;25.50;97.20;;;;;;1858546;76;21235;-72
2021/10/17 12:19:00;;;;;;;4.40;2.30;;;25.50;97.00;;;;;;1866487;75;21693;-72
2021/10/17 12:21:33;;;;;;;5.37;2.22;;;25.50;97.10;;;;;;1846253;76;21149;-72
2021/10/17 12:24:05;;;;;;;2.95;1.80;;;25.50;97.10;;;;;;1838676;76;21616;-72
2021/10/17 12:26:36;;;;;;;7.80;3.10;;;25.40;96.70;;;;;;1818408;77;21171;-72
2021/10/17 12:29:11;;;;;;;8.30;2.47;;;25.40;97.00;;;;;;1874234;75;21131;-73
2021/10/17 12:31:45;;;;;;;6.00;2.37;;;25.40;97.00;;;;;;1832466;75;21820;-73
2021/10/17 12:34:20;;;;;;;3.95;2.02;;;25.40;97.20;;;;;;1840787;76;21163;-73
2021/10/17 12:36:51;;;;;;;5.75;2.08;;;25.40;97.40;;;;;;1892556;73;21230;-73
2021/10/17 12:39:22;;;;;;;6.75;2.05;;;25.40;97.30;;;;;;1859189;75;21257;-72
2021/10/17 12:41:55;;;;;;;3.12;1.80;;;25.40;97.20;;;;;;1821242;77;21662;-72
2021/10/17 12:44:40;;;;;;;3.90;2.00;;;25.40;97.00;;;;;;1909664;73;21171;-74
2021/10/17 12:47:12;;;;;;;5.00;1.90;;;25.40;97.20;;;;;;1907554;73;21157;-72
2021/10/17 12:49:49;;;;;;;3.50;1.65;;;25.40;97.10;;;;;;1865988;76;21602;-73
2021/10/17 12:52:22;;;;;;;3.12;1.70;;;25.40;97.20;;;;;;1922422;73;21168;-73
2021/10/17 12:54:56;;;;;;;6.15;1.95;;;25.40;97.10;;;;;;1901366;73;21685;-74
2021/10/17 12:57:28;;;;;;;3.20;1.80;;;25.40;97.00;;;;;;1900780;73;21588;-74
2021/10/17 13:00:02;;;;;;;5.70;2.08;;;25.30;97.10;;;;;;1899878;73;21135;-73
2021/10/17 13:02:35;;;;;;;2.90;1.70;;;25.40;97.10;;;;;;1887674;73;21682;-73
2021/10/17 13:05:10;;;;;;;4.33;2.02;;;25.30;97.00;;;;;;1898942;73;21115;-72
2021/10/17 13:07:39;;;;;;;4.87;2.10;;;25.30;96.90;;;;;;1897232;74;21138;-73
2021/10/17 13:10:14;;;;;;;3.22;2.10;;;25.30;97.20;;;;;;1913647;73;21209;-73